createdAt,value
2018-08-22T00:01:45.698Z,74.10
2018-08-22T00:04:14.045Z,74.10
2018-08-22T00:06:42.361Z,74.40
2018-08-22T00:09:10.758Z,74.60
2018-08-22T00:11:39.180Z,74.50
2018-08-22T00:14:07.584Z,74.60
2018-08-22T00:16:35.958Z,75.10
2018-08-22T00:19:04.516Z,75.20
2018-08-22T00:21:32.916Z,75.10
2018-08-22T00:24:01.353Z,74.80
2018-08-22T00:26:29.733Z,74.90
2018-08-22T00:28:58.185Z,74.90
2018-08-22T00:31:26.589Z,75.10
2018-08-22T00:33:54.905Z,75.00
2018-08-22T00:36:23.293Z,75.40
2018-08-22T00:38:51.730Z,74.90
2018-08-22T00:41:20.128Z,75.10
2018-08-22T00:43:48.472Z,75.00
2018-08-22T00:46:16.822Z,75.00
2018-08-22T00:48:45.159Z,75.00
2018-08-22T00:51:13.542Z,75.00
2018-08-22T00:53:41.881Z,75.00
2018-08-22T00:56:10.246Z,75.10
2018-08-22T00:58:38.598Z,75.00
2018-08-22T01:01:06.931Z,74.90
2018-08-22T01:03:35.280Z,74.90
2018-08-22T01:06:03.626Z,75.00
2018-08-22T01:08:32.015Z,75.00
2018-08-22T01:11:00.358Z,75.20
2018-08-22T01:13:28.724Z,75.10
2018-08-22T01:15:57.048Z,75.30
2018-08-22T01:18:25.407Z,75.30
2018-08-22T01:20:53.733Z,75.30
2018-08-22T01:23:22.096Z,75.30
2018-08-22T01:25:50.449Z,75.30
2018-08-22T01:28:18.772Z,75.30
2018-08-22T01:30:47.104Z,75.30
2018-08-22T01:33:15.484Z,75.40
2018-08-22T01:35:43.916Z,75.60
2018-08-22T01:38:12.280Z,75.30
2018-08-22T01:40:40.689Z,75.30
2018-08-22T01:43:09.096Z,75.40
2018-08-22T01:45:37.528Z,75.40
2018-08-22T01:48:05.910Z,75.30
2018-08-22T01:50:34.239Z,75.30
2018-08-22T01:53:02.556Z,75.30
2018-08-22T01:55:30.929Z,75.40
2018-08-22T01:57:59.288Z,75.60
2018-08-22T02:00:27.610Z,75.70
2018-08-22T02:02:55.964Z,75.80
2018-08-22T02:05:24.368Z,75.70
2018-08-22T02:07:52.825Z,75.80
2018-08-22T02:10:21.180Z,75.80
2018-08-22T02:12:49.516Z,75.90
2018-08-22T02:15:20.841Z,75.90
2018-08-22T02:17:49.157Z,75.90
2018-08-22T02:20:17.566Z,75.90
2018-08-22T02:22:45.850Z,76.60
2018-08-22T02:25:14.192Z,75.90
2018-08-22T02:27:42.389Z,75.80
2018-08-22T02:30:10.745Z,75.80
2018-08-22T02:32:38.989Z,75.90
2018-08-22T02:35:07.263Z,76.70
2018-08-22T02:37:35.506Z,75.90
2018-08-22T02:40:03.793Z,76.00
2018-08-22T02:42:32.067Z,76.00
2018-08-22T02:45:00.308Z,76.40
2018-08-22T02:47:28.627Z,76.30
2018-08-22T02:49:56.886Z,76.40
2018-08-22T02:52:25.177Z,76.70
2018-08-22T02:54:53.423Z,76.90
2018-08-22T02:57:21.821Z,76.80
2018-08-22T02:59:50.081Z,76.80
2018-08-22T03:02:18.338Z,77.00
2018-08-22T03:04:46.741Z,76.80
2018-08-22T03:07:15.034Z,76.90
2018-08-22T03:09:43.341Z,76.90
2018-08-22T03:12:11.605Z,76.90
2018-08-22T03:14:39.901Z,76.90
2018-08-22T03:17:08.174Z,77.20
2018-08-22T03:19:36.461Z,77.30
2018-08-22T03:22:04.743Z,77.30
2018-08-22T03:24:33.042Z,77.20
2018-08-22T03:27:01.306Z,77.20
2018-08-22T03:29:29.653Z,77.20
2018-08-22T03:31:57.910Z,77.30
2018-08-22T03:34:26.238Z,77.30
2018-08-22T03:36:54.457Z,78.30
2018-08-22T03:39:22.741Z,77.60
2018-08-22T03:41:51.013Z,77.60
2018-08-22T03:44:19.253Z,77.70
2018-08-22T03:46:47.546Z,77.80
2018-08-22T03:49:15.863Z,77.60
2018-08-22T03:51:44.146Z,77.70
2018-08-22T03:54:12.422Z,77.70
2018-08-22T03:56:40.749Z,77.70
2018-08-22T03:59:09.015Z,77.70
2018-08-22T04:01:37.243Z,77.70
2018-08-22T04:04:05.521Z,77.70
2018-08-22T04:06:33.788Z,77.80
2018-08-22T04:09:02.080Z,78.00
2018-08-22T04:11:30.514Z,77.90
2018-08-22T04:13:58.777Z,78.00
2018-08-22T04:16:27.029Z,78.10
2018-08-22T04:18:55.344Z,78.00
2018-08-22T04:21:23.569Z,78.20
2018-08-22T04:23:51.838Z,78.30
2018-08-22T04:26:20.118Z,78.30
2018-08-22T04:28:48.376Z,78.50
2018-08-22T04:31:16.634Z,78.50
2018-08-22T04:33:44.880Z,78.60
2018-08-22T04:36:13.154Z,78.60
2018-08-22T04:38:41.420Z,78.50
2018-08-22T04:41:09.705Z,78.40
2018-08-22T04:43:37.961Z,78.60
2018-08-22T04:46:06.215Z,78.70
2018-08-22T04:48:34.476Z,78.90
2018-08-22T04:51:02.707Z,78.90
2018-08-22T04:53:30.987Z,78.80
2018-08-22T04:55:59.222Z,78.80
2018-08-22T04:58:27.509Z,78.70
2018-08-22T05:00:55.807Z,78.80
2018-08-22T05:03:24.135Z,78.90
2018-08-22T05:05:52.540Z,78.70
2018-08-22T05:08:20.769Z,78.80
2018-08-22T05:10:49.083Z,78.70
2018-08-22T05:13:17.309Z,79.00
2018-08-22T05:15:45.680Z,79.10
2018-08-22T05:18:13.920Z,79.20
2018-08-22T05:20:42.228Z,79.10
2018-08-22T05:23:10.460Z,79.00
2018-08-22T05:25:38.704Z,79.10
2018-08-22T05:28:07.002Z,79.00
2018-08-22T05:30:35.665Z,79.20
2018-08-22T05:33:03.947Z,79.10
2018-08-22T05:35:32.175Z,78.80
2018-08-22T05:38:00.757Z,78.70
2018-08-22T05:40:29.020Z,78.60
2018-08-22T05:42:57.471Z,78.50
2018-08-22T05:45:25.715Z,78.70
2018-08-22T05:47:53.961Z,78.80
2018-08-22T05:50:22.202Z,78.60
2018-08-22T05:52:50.480Z,78.40
2018-08-22T05:55:18.753Z,78.30
2018-08-22T05:57:47.029Z,78.50
2018-08-22T06:00:15.323Z,78.20
2018-08-22T06:02:43.573Z,77.90
2018-08-22T06:05:13.899Z,77.60
2018-08-22T06:07:43.824Z,77.90
2018-08-22T06:10:12.073Z,77.40
2018-08-22T06:12:41.162Z,77.40
2018-08-22T06:15:11.158Z,77.30
2018-08-22T06:17:39.559Z,77.20
2018-08-22T06:20:07.871Z,76.90
2018-08-22T06:22:36.165Z,76.90
2018-08-22T06:25:04.422Z,76.90
2018-08-22T06:27:32.676Z,76.80
2018-08-22T06:30:00.922Z,76.60
2018-08-22T06:32:29.322Z,76.70
2018-08-22T06:34:58.108Z,76.70
2018-08-22T06:37:26.317Z,76.10
2018-08-22T06:39:54.602Z,75.90
2018-08-22T06:42:22.900Z,75.70
2018-08-22T06:44:51.162Z,75.60
2018-08-22T06:47:19.493Z,75.10
2018-08-22T06:49:47.750Z,74.70
2018-08-22T06:52:18.619Z,74.60
2018-08-22T06:54:47.350Z,74.50
2018-08-22T06:57:16.293Z,74.60
2018-08-22T06:59:45.146Z,74.40
2018-08-22T07:02:14.153Z,74.00
2018-08-22T07:04:42.545Z,73.40
2018-08-22T07:07:12.499Z,72.40
2018-08-22T07:09:40.744Z,71.20
2018-08-22T07:12:08.962Z,70.60
2018-08-22T07:14:37.494Z,69.70
2018-08-22T07:17:06.182Z,69.00
2018-08-22T07:19:34.597Z,68.70
2018-08-22T07:22:02.880Z,69.40
2018-08-22T07:24:31.220Z,69.00
2018-08-22T07:26:59.506Z,67.80
2018-08-22T07:29:27.930Z,66.60
2018-08-22T07:31:56.221Z,66.50
2018-08-22T07:34:24.597Z,65.70
2018-08-22T07:36:52.874Z,65.10
2018-08-22T07:39:21.149Z,64.00
2018-08-22T07:41:49.469Z,62.90
2018-08-22T07:44:17.884Z,61.80
2018-08-22T07:46:46.168Z,61.00
2018-08-22T07:49:14.510Z,59.50
2018-08-22T07:51:42.813Z,58.70
2018-08-22T07:54:11.301Z,57.90
2018-08-22T07:56:39.570Z,57.20
2018-08-22T07:59:11.033Z,57.20
2018-08-22T08:01:39.821Z,57.10
2018-08-22T08:04:09.425Z,56.80
2018-08-22T08:06:37.727Z,56.90
2018-08-22T08:09:08.779Z,56.90
2018-08-22T08:11:37.085Z,56.70
2018-08-22T08:14:05.356Z,55.50
2018-08-22T08:16:33.700Z,54.20
2018-08-22T08:19:02.042Z,53.40
2018-08-22T08:21:30.357Z,53.00
2018-08-22T08:23:58.909Z,53.00
2018-08-22T08:26:27.195Z,52.50
2018-08-22T08:28:55.534Z,52.10
2018-08-22T08:31:23.834Z,50.90
2018-08-22T08:33:52.113Z,49.70
2018-08-22T08:36:20.387Z,49.50
2018-08-22T08:38:48.704Z,48.40
2018-08-22T08:41:17.080Z,47.90
2018-08-22T08:43:45.398Z,47.30
2018-08-22T08:46:13.794Z,45.90
2018-08-22T08:48:42.097Z,45.50
2018-08-22T08:51:10.457Z,45.60
2018-08-22T08:53:38.766Z,45.10
2018-08-22T08:56:07.114Z,45.00
2018-08-22T08:58:35.431Z,44.40
2018-08-22T09:01:03.741Z,43.40
2018-08-22T09:03:32.004Z,43.40
2018-08-22T09:06:00.340Z,42.40
2018-08-22T09:08:28.664Z,41.40
2018-08-22T09:10:56.909Z,41.00
2018-08-22T09:13:25.244Z,40.30
2018-08-22T09:15:53.461Z,39.40
2018-08-22T09:18:21.727Z,39.70
2018-08-22T09:20:50.073Z,39.10
2018-08-22T09:23:18.465Z,38.40
2018-08-22T09:25:46.713Z,38.00
2018-08-22T09:28:15.109Z,38.10
2018-08-22T09:30:43.486Z,38.20
2018-08-22T09:33:11.889Z,37.80
2018-08-22T09:35:40.165Z,37.20
2018-08-22T09:38:08.441Z,36.90
2018-08-22T09:40:36.782Z,36.20
2018-08-22T09:43:05.111Z,36.20
2018-08-22T09:45:33.364Z,36.60
2018-08-22T09:48:01.774Z,36.50
2018-08-22T09:50:30.009Z,36.30
2018-08-22T09:52:58.296Z,36.50
2018-08-22T09:55:26.565Z,36.30
2018-08-22T09:57:54.865Z,35.60
2018-08-22T10:00:28.439Z,34.80
2018-08-22T10:02:56.714Z,34.70
2018-08-22T10:05:25.073Z,33.90
2018-08-22T10:07:53.429Z,33.30
2018-08-22T10:10:21.737Z,33.90
2018-08-22T10:12:50.160Z,33.60
2018-08-22T10:15:18.500Z,33.10
2018-08-22T10:17:46.859Z,32.60
2018-08-22T10:20:15.137Z,32.20
2018-08-22T10:22:43.516Z,31.90
2018-08-22T10:25:12.429Z,32.00
2018-08-22T10:27:40.767Z,32.20
2018-08-22T10:30:09.037Z,31.40
2018-08-22T10:32:37.351Z,32.10
2018-08-22T10:35:06.104Z,31.50
2018-08-22T10:37:34.373Z,31.10
2018-08-22T10:40:02.772Z,30.80
2018-08-22T10:42:31.094Z,31.00
2018-08-22T10:44:59.338Z,30.80
2018-08-22T10:47:27.645Z,30.90
2018-08-22T10:49:55.910Z,30.60
2018-08-22T10:52:24.206Z,30.50
2018-08-22T10:54:52.581Z,30.70
2018-08-22T10:57:20.877Z,30.70
2018-08-22T10:59:49.137Z,30.20
2018-08-22T11:02:17.445Z,29.90
2018-08-22T11:04:45.712Z,29.70
2018-08-22T11:07:14.013Z,29.30
2018-08-22T11:09:42.327Z,28.90
2018-08-22T11:12:10.627Z,28.90
2018-08-22T11:14:38.909Z,29.10
2018-08-22T11:17:07.262Z,29.00
2018-08-22T11:19:35.578Z,29.00
2018-08-22T11:22:15.103Z,28.50
2018-08-22T11:24:54.761Z,28.20
2018-08-22T11:27:34.242Z,28.00
2018-08-22T11:30:13.851Z,27.70
2018-08-22T11:32:53.373Z,27.50
2018-08-22T11:35:20.633Z,27.40
2018-08-22T11:37:48.901Z,27.60
2018-08-22T11:40:17.148Z,27.60
2018-08-22T11:42:45.407Z,27.70
2018-08-22T11:45:13.646Z,27.90
2018-08-22T11:47:41.909Z,27.80
2018-08-22T11:50:10.195Z,27.10
2018-08-22T11:52:38.432Z,27.30
2018-08-22T11:55:06.824Z,27.70
2018-08-22T11:57:35.086Z,26.90
2018-08-22T12:00:03.478Z,26.70
2018-08-22T12:02:31.834Z,26.40
2018-08-22T12:05:00.110Z,26.40
2018-08-22T12:07:28.403Z,26.60
2018-08-22T12:09:56.683Z,26.80
2018-08-22T12:12:25.084Z,26.60
2018-08-22T12:14:53.378Z,26.10
2018-08-22T12:17:21.655Z,26.10
2018-08-22T12:19:49.933Z,25.90
2018-08-22T12:22:18.178Z,25.70
2018-08-22T12:24:46.446Z,25.50
2018-08-22T12:27:14.661Z,25.20
2018-08-22T12:29:42.901Z,24.90
2018-08-22T12:32:11.193Z,24.90
2018-08-22T12:34:39.533Z,25.00
2018-08-22T12:37:08.854Z,24.80
2018-08-22T12:39:37.264Z,24.80
2018-08-22T12:42:05.691Z,25.10
2018-08-22T12:44:34.030Z,24.50
2018-08-22T12:47:04.294Z,24.40
2018-08-22T12:49:32.561Z,24.50
2018-08-22T12:52:00.835Z,25.10
2018-08-22T12:54:29.163Z,24.60
2018-08-22T12:56:57.594Z,24.50
2018-08-22T12:59:25.884Z,24.10
2018-08-22T13:01:54.205Z,23.90
2018-08-22T13:04:22.594Z,23.60
2018-08-22T13:06:50.919Z,23.20
2018-08-22T13:09:19.180Z,23.10
2018-08-22T13:11:47.517Z,23.10
2018-08-22T13:14:15.775Z,23.40
2018-08-22T13:16:44.137Z,23.10
2018-08-22T13:19:12.389Z,22.90
2018-08-22T13:21:40.652Z,22.90
2018-08-22T13:24:08.916Z,22.80
2018-08-22T13:26:37.270Z,22.60
2018-08-22T13:29:05.789Z,22.60
2018-08-22T13:31:34.064Z,22.70
2018-08-22T13:34:02.417Z,23.10
2018-08-22T13:36:30.769Z,23.00
2018-08-22T13:38:59.155Z,22.60
2018-08-22T13:41:27.349Z,22.30
2018-08-22T13:43:55.617Z,22.60
2018-08-22T13:46:23.858Z,22.60
2018-08-22T13:48:52.137Z,22.80
2018-08-22T13:51:20.379Z,22.80
2018-08-22T13:53:48.623Z,22.90
2018-08-22T13:56:16.942Z,23.10
2018-08-22T13:58:45.412Z,23.20
2018-08-22T14:01:13.641Z,23.20
2018-08-22T14:03:42.362Z,23.70
2018-08-22T14:06:10.721Z,24.20
2018-08-22T14:08:38.998Z,24.50
2018-08-22T14:11:07.284Z,24.30
2018-08-22T14:13:35.784Z,24.90
2018-08-22T14:16:04.057Z,25.00
2018-08-22T14:18:32.277Z,25.10
2018-08-22T14:21:00.587Z,25.70
2018-08-22T14:23:28.978Z,26.10
2018-08-22T14:25:57.244Z,25.80
2018-08-22T14:28:25.530Z,26.00
2018-08-22T14:30:53.804Z,26.30
2018-08-22T14:33:22.054Z,26.70
2018-08-22T14:35:50.352Z,27.10
2018-08-22T14:38:18.709Z,27.30
2018-08-22T14:40:46.962Z,27.70
2018-08-22T14:43:15.261Z,28.30
2018-08-22T14:45:43.632Z,28.80
2018-08-22T14:48:12.122Z,29.50
2018-08-22T14:50:40.571Z,29.50
2018-08-22T14:53:08.900Z,29.70
2018-08-22T14:55:37.201Z,29.30
2018-08-22T14:58:05.679Z,29.40
2018-08-22T15:00:33.930Z,30.00
2018-08-22T15:03:02.414Z,30.60
2018-08-22T15:05:30.478Z,30.90
2018-08-22T15:07:58.738Z,31.10
2018-08-22T15:10:26.998Z,31.00
2018-08-22T15:12:55.331Z,31.20
2018-08-22T15:15:23.590Z,31.20
2018-08-22T15:17:51.977Z,31.40
2018-08-22T15:20:20.230Z,31.80
2018-08-22T15:22:48.486Z,32.20
2018-08-22T15:25:16.919Z,32.50
2018-08-22T15:27:45.162Z,32.80
2018-08-22T15:30:13.454Z,33.40
2018-08-22T15:32:41.713Z,33.60
2018-08-22T15:35:16.576Z,33.60
2018-08-22T15:37:44.828Z,33.60
2018-08-22T15:40:13.073Z,33.40
2018-08-22T15:42:41.308Z,33.40
2018-08-22T15:45:09.548Z,33.70
2018-08-22T15:47:37.813Z,34.10
2018-08-22T15:50:06.509Z,34.30
2018-08-22T15:52:34.784Z,34.80
2018-08-22T15:55:10.798Z,34.40
2018-08-22T15:58:07.975Z,34.10
2018-08-22T16:00:45.089Z,34.10
2018-08-22T16:03:13.349Z,34.60
2018-08-22T16:05:42.443Z,34.70
2018-08-22T16:08:11.277Z,35.20
2018-08-22T16:10:39.568Z,35.70
2018-08-22T16:13:14.706Z,35.70
2018-08-22T16:15:42.973Z,35.90
2018-08-22T16:18:11.198Z,36.20
2018-08-22T16:20:49.536Z,36.30
2018-08-22T16:23:17.849Z,36.20
2018-08-22T16:25:47.621Z,36.00
2018-08-22T16:28:15.993Z,36.10
2018-08-22T16:30:44.210Z,37.20
2018-08-22T16:33:12.462Z,36.80
2018-08-22T16:35:40.707Z,36.90
2018-08-22T16:38:12.896Z,38.20
2018-08-22T16:40:42.688Z,38.80
2018-08-22T16:43:10.943Z,39.70
2018-08-22T16:45:45.874Z,40.80
2018-08-22T16:48:17.808Z,41.20
2018-08-22T16:50:46.268Z,41.40
2018-08-22T16:53:14.517Z,41.70
2018-08-22T16:55:42.883Z,41.80
2018-08-22T16:58:11.182Z,41.90
2018-08-22T17:00:44.034Z,41.60
2018-08-22T17:03:12.414Z,41.40
2018-08-22T17:05:40.689Z,42.00
2018-08-22T17:08:09.058Z,41.90
2018-08-22T17:10:53.176Z,41.80
2018-08-22T17:13:29.384Z,42.00
2018-08-22T17:15:58.807Z,43.00
2018-08-22T17:18:27.345Z,43.50
2018-08-22T17:20:55.746Z,44.20
2018-08-22T17:23:24.158Z,44.70
2018-08-22T17:25:52.567Z,45.10
2018-08-22T17:28:52.655Z,45.20
2018-08-22T17:31:21.992Z,45.80
2018-08-22T17:33:54.042Z,46.20
2018-08-22T17:36:22.501Z,46.20
2018-08-22T17:38:53.373Z,46.50
2018-08-22T17:41:22.866Z,46.90
2018-08-22T17:44:02.912Z,48.60
2018-08-22T17:46:33.723Z,48.40
2018-08-22T17:49:02.084Z,48.80
2018-08-22T17:51:30.433Z,49.40
2018-08-22T17:53:58.862Z,50.20
2018-08-22T17:56:27.595Z,50.70
2018-08-22T17:58:56.782Z,50.90
2018-08-22T18:01:25.385Z,51.10
2018-08-22T18:03:55.853Z,51.60
2018-08-22T18:06:24.309Z,51.80
2018-08-22T18:08:52.564Z,51.60
2018-08-22T18:11:20.910Z,51.80
2018-08-22T18:13:49.236Z,52.40
2018-08-22T18:16:17.400Z,52.70
2018-08-22T18:18:45.674Z,53.30
2018-08-22T18:21:13.914Z,53.90
2018-08-22T18:23:48.404Z,54.40
2018-08-22T18:26:16.737Z,54.40
2018-08-22T18:28:45.024Z,54.40
2018-08-22T18:31:13.254Z,54.40
2018-08-22T18:33:55.702Z,54.70
2018-08-22T18:36:24.687Z,54.90
2018-08-22T18:39:01.703Z,55.00
2018-08-22T18:41:29.993Z,55.10
2018-08-22T18:43:58.275Z,55.20
2018-08-22T18:46:26.613Z,55.40
2018-08-22T18:48:54.889Z,55.90
2018-08-22T18:51:23.197Z,56.30
2018-08-22T18:53:51.490Z,56.60
2018-08-22T18:56:21.530Z,57.00
2018-08-22T18:58:49.898Z,57.30
2018-08-22T19:01:18.638Z,57.70
2018-08-22T19:03:46.977Z,58.10
2018-08-22T19:06:15.258Z,58.40
2018-08-22T19:08:43.548Z,58.50
2018-08-22T19:11:11.936Z,58.80
2018-08-22T19:13:40.339Z,59.10
2018-08-22T19:16:10.646Z,59.20
2018-08-22T19:18:39.314Z,59.60
2018-08-22T19:21:09.089Z,59.80
2018-08-22T19:23:38.205Z,60.10
2018-08-22T19:26:07.513Z,60.60
2018-08-22T19:28:52.387Z,60.90
2018-08-22T19:31:20.670Z,61.30
2018-08-22T19:33:48.942Z,61.50
2018-08-22T19:36:17.226Z,61.70
2018-08-22T19:38:45.478Z,62.20
2018-08-22T19:41:21.965Z,62.40
2018-08-22T19:43:50.525Z,62.70
2018-08-22T19:46:18.746Z,62.70
2018-08-22T19:48:47.044Z,63.00
2018-08-22T19:51:15.328Z,63.10
2018-08-22T19:53:55.609Z,63.30
2018-08-22T19:56:24.356Z,63.70
2018-08-22T19:58:52.673Z,63.30
2018-08-22T20:01:21.081Z,63.60
2018-08-22T20:03:52.613Z,64.00
2018-08-22T20:06:21.190Z,64.30
2018-08-22T20:08:52.039Z,64.10
2018-08-22T20:11:20.413Z,64.20
2018-08-22T20:13:51.842Z,64.40
2018-08-22T20:16:21.207Z,64.60
2018-08-22T20:18:56.302Z,64.70
2018-08-22T20:21:29.875Z,64.80
2018-08-22T20:23:58.336Z,65.00
2018-08-22T20:26:27.499Z,65.30
2018-08-22T20:28:57.124Z,65.40
2018-08-22T20:31:25.306Z,65.80
2018-08-22T20:34:05.234Z,65.90
2018-08-22T20:36:33.548Z,66.20
2018-08-22T20:39:06.480Z,66.20
2018-08-22T20:41:35.065Z,66.40
2018-08-22T20:44:06.225Z,66.60
2018-08-22T20:46:34.470Z,67.00
2018-08-22T20:49:02.786Z,67.00
2018-08-22T20:51:31.534Z,67.40
2018-08-22T20:54:05.191Z,67.50
2018-08-22T20:56:33.430Z,67.70
2018-08-22T20:59:01.797Z,67.80
2018-08-22T21:01:30.070Z,68.10
2018-08-22T21:03:58.334Z,68.20
2018-08-22T21:06:26.686Z,68.30
2018-08-22T21:08:54.918Z,68.60
2018-08-22T21:11:23.177Z,68.60
2018-08-22T21:13:51.600Z,68.80
2018-08-22T21:16:19.798Z,68.90
2018-08-22T21:18:48.045Z,69.20
2018-08-22T21:21:21.406Z,69.20
2018-08-22T21:23:49.757Z,69.40
2018-08-22T21:26:32.192Z,69.70
2018-08-22T21:29:00.555Z,69.90
2018-08-22T21:31:28.769Z,69.60
2018-08-22T21:33:57.033Z,69.50
2018-08-22T21:36:25.525Z,69.90
2018-08-22T21:38:53.868Z,69.90
2018-08-22T21:41:28.803Z,69.90
2018-08-22T21:43:57.045Z,70.00
2018-08-22T21:46:25.559Z,70.00
2018-08-22T21:48:53.858Z,69.90
2018-08-22T21:51:22.161Z,70.00
2018-08-22T21:53:50.420Z,70.10
2018-08-22T21:56:18.737Z,70.00
2018-08-22T21:58:47.055Z,69.60
2018-08-22T22:01:15.265Z,69.10
2018-08-22T22:03:43.626Z,69.10
2018-08-22T22:06:11.910Z,69.50
2018-08-22T22:08:44.233Z,69.50
2018-08-22T22:11:12.529Z,69.40
2018-08-22T22:13:40.889Z,68.90
2018-08-22T22:16:09.116Z,68.90
2018-08-22T22:18:37.394Z,68.90
2018-08-22T22:21:12.205Z,69.10
2018-08-22T22:23:46.673Z,69.10
2018-08-22T22:26:16.031Z,69.10
2018-08-22T22:28:44.276Z,69.10
2018-08-22T22:31:13.625Z,68.60
2018-08-22T22:33:46.411Z,69.20
2018-08-22T22:36:15.181Z,69.20
2018-08-22T22:38:43.433Z,69.40
2018-08-22T22:41:11.678Z,69.60
2018-08-22T22:43:39.953Z,69.70
2018-08-22T22:46:08.298Z,69.70
2018-08-22T22:48:37.886Z,69.90
2018-08-22T22:51:06.789Z,69.80
2018-08-22T22:53:35.418Z,69.60
2018-08-22T22:56:03.949Z,69.70
2018-08-22T22:58:33.162Z,70.20
2018-08-22T23:01:01.457Z,70.40
2018-08-22T23:03:29.737Z,70.20
2018-08-22T23:05:58.029Z,70.10
2018-08-22T23:08:26.433Z,69.70
2018-08-22T23:10:54.912Z,69.60
2018-08-22T23:13:24.973Z,69.60
2018-08-22T23:15:53.238Z,69.80
2018-08-22T23:18:21.559Z,70.10
2018-08-22T23:20:49.793Z,70.40
2018-08-22T23:23:30.357Z,70.50
2018-08-22T23:26:06.790Z,70.70
2018-08-22T23:28:35.075Z,70.90
2018-08-22T23:31:03.465Z,71.10
2018-08-22T23:33:31.704Z,71.30
2018-08-22T23:35:59.943Z,71.60
2018-08-22T23:38:32.290Z,71.90
2018-08-22T23:41:01.242Z,71.90
2018-08-22T23:44:03.777Z,72.30
2018-08-22T23:46:32.474Z,72.80
2018-08-22T23:49:00.722Z,72.90
2018-08-22T23:51:28.986Z,73.30
2018-08-22T23:53:57.853Z,73.70
2018-08-22T23:56:27.151Z,74.00
2018-08-22T23:58:55.964Z,74.20
